createdAt,value
2023-01-26T00:00:01.421Z,58.63
2023-01-26T00:02:46.603Z,55.47
2023-01-26T00:05:32.014Z,52.37
2023-01-26T00:08:17.742Z,52.63
2023-01-26T00:11:07.417Z,54.90
2023-01-26T00:13:53.637Z,53.30
2023-01-26T00:16:38.933Z,53.53
2023-01-26T00:19:23.797Z,54.97
2023-01-26T00:22:08.563Z,56.17
2023-01-26T00:24:53.909Z,54.77
2023-01-26T00:27:39.191Z,53.07
2023-01-26T00:30:24.463Z,54.23
2023-01-26T00:33:09.637Z,53.60
2023-01-26T00:35:55.069Z,54.03
2023-01-26T00:38:41.380Z,52.77
2023-01-26T00:41:26.517Z,54.23
2023-01-26T00:44:11.688Z,54.00
2023-01-26T00:46:56.891Z,50.63
2023-01-26T00:49:42.212Z,54.10
2023-01-26T00:52:27.213Z,51.67
2023-01-26T00:55:12.175Z,50.83
2023-01-26T00:57:57.081Z,52.33
2023-01-26T01:00:42.387Z,49.53
2023-01-26T01:03:27.944Z,50.77
2023-01-26T01:06:13.459Z,51.00
2023-01-26T01:08:59.717Z,51.77
2023-01-26T01:11:44.471Z,49.97
2023-01-26T01:14:29.313Z,52.13
2023-01-26T01:17:14.364Z,48.47
2023-01-26T01:19:59.293Z,50.93
2023-01-26T01:22:44.643Z,50.67
2023-01-26T01:25:29.479Z,48.30
2023-01-26T01:28:14.785Z,48.87
2023-01-26T01:31:03.377Z,50.90
2023-01-26T01:33:48.395Z,50.73
2023-01-26T01:36:33.307Z,51.70
2023-01-26T01:39:18.105Z,53.37
2023-01-26T01:42:03.034Z,52.60
2023-01-26T01:45:19.603Z,54.13
2023-01-26T01:48:13.085Z,54.97
2023-01-26T01:51:03.971Z,55.13
2023-01-26T01:53:51.808Z,54.13
2023-01-26T01:56:39.350Z,54.57
2023-01-26T01:59:25.293Z,56.23
2023-01-26T02:02:11.298Z,56.20
2023-01-26T02:05:00.483Z,55.00
2023-01-26T02:07:46.519Z,55.73
2023-01-26T02:10:32.791Z,55.80
2023-01-26T02:13:20.076Z,56.43
2023-01-26T02:16:05.788Z,56.43
2023-01-26T02:18:50.683Z,57.60
2023-01-26T02:21:35.602Z,61.13
2023-01-26T02:24:32.743Z,61.37
2023-01-26T02:27:18.319Z,61.87
2023-01-26T02:30:04.987Z,60.37
2023-01-26T02:32:50.269Z,61.70
2023-01-26T02:35:37.937Z,61.47
2023-01-26T02:38:28.806Z,61.90
2023-01-26T02:41:16.897Z,62.07
2023-01-26T02:44:04.648Z,62.60
2023-01-26T02:46:49.859Z,63.77
2023-01-26T02:49:35.201Z,63.73
2023-01-26T02:52:22.946Z,65.13
2023-01-26T02:55:08.787Z,63.87
2023-01-26T02:57:57.322Z,63.97
2023-01-26T03:00:42.675Z,63.83
2023-01-26T03:03:29.024Z,64.93
2023-01-26T03:06:15.238Z,65.87
2023-01-26T03:09:00.598Z,68.70
2023-01-26T03:11:45.415Z,69.07
2023-01-26T03:14:31.071Z,68.20
2023-01-26T03:17:16.271Z,66.50
2023-01-26T03:20:02.009Z,69.20
2023-01-26T03:22:47.323Z,65.27
2023-01-26T03:25:32.684Z,67.07
2023-01-26T03:28:18.197Z,66.30
2023-01-26T03:31:07.191Z,66.90
2023-01-26T03:33:52.076Z,66.50
2023-01-26T03:36:37.595Z,67.13
2023-01-26T03:39:22.714Z,66.50
2023-01-26T03:42:08.019Z,70.07
2023-01-26T03:44:53.175Z,68.77
2023-01-26T03:47:38.593Z,68.47
2023-01-26T03:50:24.095Z,69.53
2023-01-26T03:53:17.441Z,68.30
2023-01-26T03:56:04.977Z,69.07
2023-01-26T03:58:58.336Z,69.77
2023-01-26T04:01:47.352Z,66.00
2023-01-26T04:04:33.088Z,68.07
2023-01-26T04:07:18.494Z,64.67
2023-01-26T04:10:03.647Z,66.47
2023-01-26T04:12:48.940Z,64.77
2023-01-26T04:15:36.113Z,63.67
2023-01-26T04:18:21.543Z,65.60
2023-01-26T04:21:07.541Z,66.83
2023-01-26T04:23:53.584Z,63.47
2023-01-26T04:26:38.894Z,64.17
2023-01-26T04:29:24.496Z,63.43
2023-01-26T04:32:09.724Z,63.10
2023-01-26T04:34:55.135Z,66.47
2023-01-26T04:37:40.934Z,66.90
2023-01-26T04:40:26.047Z,66.40
2023-01-26T04:43:11.210Z,63.13
2023-01-26T04:46:07.559Z,64.93
2023-01-26T04:48:52.892Z,60.63
2023-01-26T04:51:38.106Z,61.87
2023-01-26T04:54:23.399Z,64.33
2023-01-26T04:57:08.994Z,62.17
2023-01-26T04:59:54.195Z,63.57
2023-01-26T05:02:38.951Z,65.17
2023-01-26T05:05:23.884Z,62.30
2023-01-26T05:08:09.251Z,64.77
2023-01-26T05:10:54.598Z,62.03
2023-01-26T05:13:40.054Z,60.80
2023-01-26T05:16:26.142Z,62.50
2023-01-26T05:19:11.694Z,63.37
2023-01-26T05:21:56.724Z,62.40
2023-01-26T05:24:45.015Z,60.43
2023-01-26T05:27:30.566Z,61.67
2023-01-26T05:30:16.418Z,65.53
2023-01-26T05:33:03.227Z,63.80
2023-01-26T05:35:49.184Z,63.43
2023-01-26T05:38:34.681Z,63.23
2023-01-26T05:41:20.096Z,60.37
2023-01-26T05:44:05.312Z,58.97
2023-01-26T05:46:53.602Z,60.53
2023-01-26T05:49:39.170Z,62.23
2023-01-26T05:52:24.646Z,61.97
2023-01-26T05:55:10.210Z,62.73
2023-01-26T05:57:55.400Z,63.33
2023-01-26T06:00:40.771Z,61.53
2023-01-26T06:03:26.076Z,58.13
2023-01-26T06:06:10.886Z,62.50
2023-01-26T06:08:56.439Z,60.30
2023-01-26T06:11:42.043Z,58.30
2023-01-26T06:14:27.328Z,57.13
2023-01-26T06:17:14.604Z,55.57
2023-01-26T06:19:59.846Z,55.90
2023-01-26T06:22:44.881Z,55.87
2023-01-26T06:25:29.922Z,54.37
2023-01-26T06:28:14.899Z,56.87
2023-01-26T06:31:04.299Z,57.03
2023-01-26T06:33:50.106Z,52.57
2023-01-26T06:36:35.103Z,57.23
2023-01-26T06:39:20.047Z,55.53
2023-01-26T06:42:05.346Z,57.80
2023-01-26T06:44:50.742Z,55.97
2023-01-26T06:47:36.982Z,57.97
2023-01-26T06:50:30.964Z,55.43
2023-01-26T06:53:33.011Z,54.10
2023-01-26T06:56:21.377Z,54.73
2023-01-26T06:59:06.818Z,73.73
2023-01-26T07:01:51.801Z,55.17
2023-01-26T07:04:36.837Z,60.57
2023-01-26T07:07:21.762Z,56.43
2023-01-26T07:10:07.377Z,59.17
2023-01-26T07:12:52.386Z,55.60
2023-01-26T07:15:37.235Z,55.63
2023-01-26T07:18:22.476Z,57.27
2023-01-26T07:21:11.334Z,58.40
2023-01-26T07:23:56.479Z,54.93
2023-01-26T07:26:41.514Z,59.70
2023-01-26T07:29:26.420Z,57.07
2023-01-26T07:32:11.993Z,59.70
2023-01-26T07:34:57.105Z,58.47
2023-01-26T07:37:43.519Z,62.03
2023-01-26T07:40:28.630Z,61.60
2023-01-26T07:43:14.524Z,57.80
2023-01-26T07:45:59.415Z,59.30
2023-01-26T07:48:44.243Z,55.40
2023-01-26T07:51:29.200Z,56.60
2023-01-26T07:54:14.581Z,56.87
2023-01-26T07:57:00.233Z,61.77
2023-01-26T07:59:45.394Z,59.47
2023-01-26T08:02:31.425Z,70.33
2023-01-26T08:05:16.942Z,62.43
2023-01-26T08:08:01.943Z,58.67
2023-01-26T08:10:46.789Z,60.10
2023-01-26T08:13:35.822Z,60.20
2023-01-26T08:16:21.515Z,66.00
2023-01-26T08:19:06.743Z,61.47
2023-01-26T08:21:51.468Z,64.53
2023-01-26T08:24:36.492Z,61.47
2023-01-26T08:27:21.478Z,61.47
2023-01-26T08:30:07.617Z,63.77
2023-01-26T08:32:52.689Z,60.90
2023-01-26T08:35:37.521Z,64.13
2023-01-26T08:38:22.551Z,64.37
2023-01-26T08:41:07.641Z,57.50
2023-01-26T08:43:52.923Z,62.27
2023-01-26T08:46:38.460Z,59.83
2023-01-26T08:49:24.806Z,59.90
2023-01-26T08:52:09.991Z,55.83
2023-01-26T08:54:54.779Z,56.70
2023-01-26T08:57:39.628Z,57.93
2023-01-26T09:00:25.144Z,56.40
2023-01-26T09:03:10.436Z,59.80
2023-01-26T09:05:59.963Z,55.80
2023-01-26T09:08:45.469Z,58.53
2023-01-26T09:11:30.774Z,60.17
2023-01-26T09:14:15.558Z,60.03
2023-01-26T09:17:00.487Z,57.33
2023-01-26T09:19:46.045Z,58.90
2023-01-26T09:22:31.489Z,56.57
2023-01-26T09:25:16.758Z,55.83
2023-01-26T09:28:05.536Z,57.03
2023-01-26T09:30:50.956Z,56.43
2023-01-26T09:33:36.851Z,58.17
2023-01-26T09:36:22.133Z,53.77
2023-01-26T09:39:07.643Z,56.20
2023-01-26T09:42:05.269Z,56.47
2023-01-26T09:45:29.141Z,53.27
2023-01-26T09:48:20.273Z,54.30
2023-01-26T09:51:20.996Z,50.30
2023-01-26T09:54:24.247Z,51.07
2023-01-26T09:57:16.206Z,51.27
2023-01-26T10:00:25.809Z,52.60
2023-01-26T10:03:22.734Z,51.47
2023-01-26T10:06:21.238Z,57.93
2023-01-26T10:09:28.319Z,49.37
2023-01-26T10:12:19.291Z,54.13
2023-01-26T10:15:15.912Z,47.10
2023-01-26T10:18:05.936Z,49.97
2023-01-26T10:20:55.370Z,49.30
2023-01-26T10:23:47.956Z,48.70
2023-01-26T10:26:33.693Z,48.03
2023-01-26T10:29:18.895Z,48.87
2023-01-26T10:32:04.215Z,49.10
2023-01-26T10:34:51.183Z,49.93
2023-01-26T10:37:36.726Z,47.00
2023-01-26T10:40:22.114Z,44.83
2023-01-26T10:43:17.681Z,43.07
2023-01-26T10:46:04.171Z,45.30
2023-01-26T10:48:58.142Z,41.77
2023-01-26T10:52:06.298Z,43.47
2023-01-26T10:55:09.155Z,41.43
2023-01-26T10:57:54.682Z,41.93
2023-01-26T11:00:41.053Z,45.23
2023-01-26T11:03:27.527Z,44.57
2023-01-26T11:06:17.427Z,41.37
2023-01-26T11:09:19.620Z,40.40
2023-01-26T11:12:04.987Z,40.13
2023-01-26T11:15:01.917Z,42.77
2023-01-26T11:17:59.256Z,39.47
2023-01-26T11:21:09.091Z,39.97
2023-01-26T11:24:07.634Z,37.80
2023-01-26T11:27:34.082Z,38.63
2023-01-26T11:30:43.671Z,37.67
2023-01-26T11:33:31.927Z,37.17
2023-01-26T11:36:35.892Z,34.00
2023-01-26T11:39:54.103Z,35.40
2023-01-26T11:42:51.713Z,34.20
2023-01-26T11:45:36.753Z,35.93
2023-01-26T11:48:38.106Z,35.80
2023-01-26T11:51:30.740Z,38.13
2023-01-26T11:54:42.610Z,37.50
2023-01-26T11:58:01.384Z,38.47
2023-01-26T12:00:46.734Z,39.47
2023-01-26T12:03:46.735Z,40.03
2023-01-26T12:06:37.811Z,35.80
2023-01-26T12:09:42.871Z,37.87
2023-01-26T12:12:33.942Z,35.90
2023-01-26T12:15:32.842Z,38.27
2023-01-26T12:18:29.892Z,37.90
2023-01-26T12:21:21.155Z,36.27
2023-01-26T12:24:35.736Z,35.93
2023-01-26T12:27:55.026Z,35.27
2023-01-26T12:30:48.574Z,33.30
2023-01-26T12:33:35.140Z,33.87
2023-01-26T12:36:40.020Z,32.50
2023-01-26T12:39:34.551Z,32.70
2023-01-26T12:42:39.693Z,33.47
2023-01-26T12:45:32.526Z,30.63
2023-01-26T12:48:29.759Z,29.67
2023-01-26T12:51:22.108Z,29.30
2023-01-26T12:54:36.437Z,30.57
2023-01-26T12:57:27.324Z,29.33
2023-01-26T13:00:22.536Z,29.63
2023-01-26T13:03:19.316Z,27.90
2023-01-26T13:06:10.685Z,28.70
2023-01-26T13:08:58.714Z,30.67
2023-01-26T13:11:45.191Z,27.80
2023-01-26T13:14:30.264Z,26.43
2023-01-26T13:17:15.775Z,26.70
2023-01-26T13:20:15.828Z,26.27
2023-01-26T13:23:00.961Z,26.40
2023-01-26T13:26:10.227Z,27.57
2023-01-26T13:29:27.326Z,26.83
2023-01-26T13:32:36.070Z,30.10
2023-01-26T13:35:24.182Z,26.23
2023-01-26T13:38:34.115Z,25.60
2023-01-26T13:41:20.763Z,23.97
2023-01-26T13:44:17.573Z,23.03
2023-01-26T13:47:12.276Z,22.63
2023-01-26T13:49:57.045Z,23.00
2023-01-26T13:52:42.205Z,24.13
2023-01-26T13:55:33.055Z,22.47
2023-01-26T13:58:18.977Z,22.43
2023-01-26T14:01:11.299Z,23.10
2023-01-26T14:04:05.237Z,23.43
2023-01-26T14:07:00.943Z,21.50
2023-01-26T14:09:54.726Z,22.90
2023-01-26T14:12:46.719Z,22.67
2023-01-26T14:15:33.075Z,20.57
2023-01-26T14:18:21.731Z,21.67
2023-01-26T14:21:19.696Z,21.13
2023-01-26T14:24:09.319Z,21.23
2023-01-26T14:26:55.073Z,21.67
2023-01-26T14:29:40.147Z,20.90
2023-01-26T14:32:26.396Z,20.70
2023-01-26T14:35:20.653Z,21.00
2023-01-26T14:38:12.511Z,21.80
2023-01-26T14:41:00.026Z,18.30
2023-01-26T14:43:45.682Z,18.50
2023-01-26T14:46:35.309Z,18.40
2023-01-26T14:49:56.173Z,18.63
2023-01-26T14:52:45.210Z,18.17
2023-01-26T14:55:36.687Z,19.33
2023-01-26T14:58:28.708Z,20.07
2023-01-26T15:01:24.954Z,19.27
2023-01-26T15:04:16.179Z,19.97
2023-01-26T15:07:32.208Z,18.40
2023-01-26T15:10:38.304Z,29.10
2023-01-26T15:13:25.380Z,22.17
2023-01-26T15:16:21.729Z,19.00
2023-01-26T15:19:07.151Z,17.43
2023-01-26T15:21:53.209Z,16.37
2023-01-26T15:24:38.303Z,17.00
2023-01-26T15:27:23.158Z,18.40
2023-01-26T15:30:16.877Z,19.27
2023-01-26T15:33:02.628Z,20.73
2023-01-26T15:35:58.011Z,22.33
2023-01-26T15:38:43.206Z,19.97
2023-01-26T15:41:29.372Z,21.10
2023-01-26T15:44:17.491Z,23.73
2023-01-26T15:47:02.775Z,21.13
2023-01-26T15:49:48.102Z,21.50
2023-01-26T15:52:33.153Z,19.93
2023-01-26T15:55:26.137Z,21.00
2023-01-26T15:58:11.329Z,18.93
2023-01-26T16:00:57.214Z,21.13
2023-01-26T16:03:42.792Z,24.03
2023-01-26T16:06:30.973Z,28.43
2023-01-26T16:09:16.359Z,19.23
2023-01-26T16:12:01.871Z,21.10
2023-01-26T16:14:47.247Z,18.57
2023-01-26T16:17:32.742Z,24.40
2023-01-26T16:20:18.760Z,26.67
2023-01-26T16:23:06.618Z,32.43
2023-01-26T16:25:52.533Z,25.07
2023-01-26T16:28:37.630Z,37.23
2023-01-26T16:31:25.818Z,24.90
2023-01-26T16:34:11.389Z,35.10
2023-01-26T16:36:56.576Z,23.57
2023-01-26T16:39:41.631Z,29.77
2023-01-26T16:42:27.067Z,26.33
2023-01-26T16:45:26.057Z,33.37
2023-01-26T16:48:16.193Z,27.83
2023-01-26T16:51:18.468Z,28.87
2023-01-26T16:54:03.409Z,30.20
2023-01-26T16:56:48.545Z,29.27
2023-01-26T16:59:33.880Z,44.47
2023-01-26T17:02:25.906Z,25.43
2023-01-26T17:05:15.592Z,29.53
2023-01-26T17:08:00.723Z,25.20
2023-01-26T17:10:59.859Z,26.20
2023-01-26T17:13:47.449Z,25.87
2023-01-26T17:16:32.304Z,26.77
2023-01-26T17:19:17.569Z,25.17
2023-01-26T17:22:03.169Z,37.10
2023-01-26T17:24:48.612Z,28.47
2023-01-26T17:27:34.464Z,37.47
2023-01-26T17:30:19.689Z,27.87
2023-01-26T17:33:05.167Z,28.70
2023-01-26T17:35:59.445Z,28.77
2023-01-26T17:38:45.356Z,27.70
2023-01-26T17:41:30.389Z,47.00
2023-01-26T17:44:15.347Z,48.20
2023-01-26T17:47:00.799Z,39.87
2023-01-26T17:49:46.450Z,39.13
2023-01-26T17:52:31.999Z,31.83
2023-01-26T17:55:16.995Z,29.20
2023-01-26T17:58:02.141Z,30.50
2023-01-26T18:00:47.514Z,48.60
2023-01-26T18:03:33.003Z,39.97
2023-01-26T18:06:18.205Z,39.43
2023-01-26T18:09:03.204Z,50.90
2023-01-26T18:11:48.496Z,37.00
2023-01-26T18:14:33.221Z,45.43
2023-01-26T18:17:18.172Z,39.17
2023-01-26T18:20:05.308Z,64.67
2023-01-26T18:22:50.524Z,54.17
2023-01-26T18:25:35.395Z,60.33
2023-01-26T18:28:20.285Z,76.10
2023-01-26T18:31:17.258Z,44.63
2023-01-26T18:34:04.118Z,47.63
2023-01-26T18:36:49.272Z,46.37
2023-01-26T18:39:34.161Z,56.57
2023-01-26T18:42:19.606Z,52.20
2023-01-26T18:45:04.874Z,56.30
2023-01-26T18:47:50.054Z,67.53
2023-01-26T18:50:35.445Z,44.90
2023-01-26T18:53:20.401Z,51.70
2023-01-26T18:56:07.029Z,45.90
2023-01-26T18:58:53.396Z,72.17
2023-01-26T19:01:39.102Z,62.23
2023-01-26T19:04:24.213Z,62.80
2023-01-26T19:07:09.659Z,56.53
2023-01-26T19:09:54.842Z,49.20
2023-01-26T19:12:39.832Z,54.70
2023-01-26T19:15:25.062Z,53.03
2023-01-26T19:18:10.473Z,47.77
2023-01-26T19:20:57.661Z,56.30
2023-01-26T19:23:43.611Z,51.40
2023-01-26T19:26:29.106Z,48.83
2023-01-26T19:29:14.090Z,48.67
2023-01-26T19:31:59.083Z,50.50
2023-01-26T19:34:44.213Z,52.23
2023-01-26T19:37:29.185Z,45.77
2023-01-26T19:40:14.573Z,42.00
2023-01-26T19:43:00.089Z,70.87
2023-01-26T19:45:49.506Z,62.50
2023-01-26T19:48:34.795Z,45.13
2023-01-26T19:51:23.094Z,47.33
2023-01-26T19:54:08.658Z,54.07
2023-01-26T19:56:53.805Z,45.40
2023-01-26T19:59:39.551Z,55.87
2023-01-26T20:02:25.044Z,41.03
2023-01-26T20:05:10.671Z,53.63
2023-01-26T20:07:55.705Z,48.93
2023-01-26T20:10:40.941Z,55.20
2023-01-26T20:13:26.339Z,46.53
2023-01-26T20:16:11.123Z,66.77
2023-01-26T20:18:57.994Z,38.93
2023-01-26T20:21:43.045Z,51.27
2023-01-26T20:24:28.569Z,47.83
2023-01-26T20:27:13.828Z,42.97
2023-01-26T20:29:59.197Z,43.07
2023-01-26T20:32:44.927Z,40.10
2023-01-26T20:35:30.543Z,42.10
2023-01-26T20:38:15.590Z,60.23
2023-01-26T20:41:06.531Z,49.10
2023-01-26T20:43:59.819Z,46.33
2023-01-26T20:46:46.625Z,40.47
2023-01-26T20:49:31.911Z,41.27
2023-01-26T20:52:16.819Z,39.57
2023-01-26T20:55:01.944Z,42.87
2023-01-26T20:57:47.014Z,50.07
2023-01-26T21:00:32.777Z,46.47
2023-01-26T21:03:19.993Z,39.90
2023-01-26T21:06:06.980Z,42.40
2023-01-26T21:08:55.214Z,39.13
2023-01-26T21:11:40.513Z,35.47
2023-01-26T21:14:25.695Z,38.77
2023-01-26T21:17:11.322Z,41.93
2023-01-26T21:19:56.537Z,40.03
2023-01-26T21:22:41.537Z,43.87
2023-01-26T21:25:26.749Z,66.90
2023-01-26T21:28:12.010Z,38.73
2023-01-26T21:31:02.512Z,35.37
2023-01-26T21:33:49.034Z,34.67
2023-01-26T21:36:34.087Z,33.77
2023-01-26T21:39:22.011Z,32.83
2023-01-26T21:42:07.517Z,34.17
2023-01-26T21:44:55.271Z,44.40
2023-01-26T21:47:40.872Z,39.53
2023-01-26T21:50:25.826Z,32.57
2023-01-26T21:53:10.848Z,35.43
2023-01-26T21:55:55.813Z,32.77
2023-01-26T21:58:40.937Z,33.63
2023-01-26T22:01:26.378Z,31.13
2023-01-26T22:04:17.398Z,30.30
2023-01-26T22:07:02.593Z,30.80
2023-01-26T22:09:47.985Z,32.67
2023-01-26T22:12:32.970Z,30.77
2023-01-26T22:15:18.293Z,32.17
2023-01-26T22:18:03.151Z,31.03
2023-01-26T22:20:48.926Z,29.63
2023-01-26T22:23:36.406Z,29.17
2023-01-26T22:26:22.913Z,27.03
2023-01-26T22:29:10.168Z,27.77
2023-01-26T22:31:55.104Z,24.77
2023-01-26T22:34:40.142Z,23.83
2023-01-26T22:37:25.364Z,23.83
2023-01-26T22:40:11.415Z,24.83
2023-01-26T22:42:56.788Z,27.30
2023-01-26T22:45:42.400Z,27.87
2023-01-26T22:48:27.645Z,28.53
2023-01-26T22:51:18.002Z,30.23
2023-01-26T22:54:04.440Z,33.53
2023-01-26T22:56:49.661Z,33.30
2023-01-26T22:59:34.759Z,27.27
2023-01-26T23:02:19.873Z,20.10
2023-01-26T23:05:05.448Z,18.33
2023-01-26T23:07:50.916Z,18.00
2023-01-26T23:10:36.276Z,17.13
2023-01-26T23:13:21.551Z,16.83
2023-01-26T23:16:07.012Z,17.60
2023-01-26T23:18:54.023Z,17.80
2023-01-26T23:21:39.322Z,19.17
2023-01-26T23:24:24.383Z,20.00
2023-01-26T23:27:09.550Z,19.80
2023-01-26T23:29:54.439Z,21.00
2023-01-26T23:32:39.344Z,22.23
2023-01-26T23:35:26.443Z,21.63
2023-01-26T23:38:11.818Z,22.27
2023-01-26T23:40:57.722Z,21.97
2023-01-26T23:43:43.202Z,22.73
2023-01-26T23:46:28.159Z,22.90
2023-01-26T23:49:13.404Z,22.00
2023-01-26T23:51:58.205Z,22.50
2023-01-26T23:54:43.356Z,22.97
2023-01-26T23:57:28.603Z,23.47
